Time;durP1;ratioP1;P1;durP2;ratioP2;P2;SDS_P1;SDS_P2;PMS_P1;PMS_P2;Temp;Humidity;BMP_temperature;BMP_pressure;BME280_temperature;BME280_humidity;BME280_pressure;Samples;Min_cycle;Max_cycle;Signal;HPM_P1;HPM_P2
2021/12/20 00:02:02;;;;;;;;;;;0.80;99.90;;;;;;5033407;28;19927;-74
2021/12/20 00:04:29;;;;;;;;;;;0.80;99.90;;;;;;5032950;28;20448;-75
2021/12/20 00:06:56;;;;;;;;;;;0.70;99.90;;;;;;5033577;28;20464;-74
2021/12/20 00:09:24;;;;;;;;;;;0.70;99.90;;;;;;5051237;28;19961;-75
2021/12/20 00:11:53;;;;;;;;;;;0.80;99.90;;;;;;5033259;28;19974;-74
2021/12/20 00:14:21;;;;;;;;;;;0.70;99.90;;;;;;5049164;28;19966;-74
2021/12/20 00:16:48;;;;;;;;;;;0.80;99.90;;;;;;5033535;28;20390;-74
2021/12/20 00:19:15;;;;;;;;;;;0.80;99.90;;;;;;5033246;28;19967;-74
2021/12/20 00:21:42;;;;;;;;;;;0.80;99.90;;;;;;5033328;28;19927;-74
2021/12/20 00:24:10;;;;;;;;;;;0.80;99.90;;;;;;5007273;28;19967;-74
2021/12/20 00:26:41;;;;;;;;;;;0.80;99.90;;;;;;5013467;28;19927;-74
2021/12/20 00:29:15;;;;;;;;;;;0.80;99.90;;;;;;5029075;28;19932;-74
2021/12/20 00:31:47;;;;;;;;;;;0.80;99.90;;;;;;5029203;28;20020;-74
2021/12/20 00:34:13;;;;;;;;;;;0.80;99.90;;;;;;5028653;28;20020;-74
2021/12/20 00:36:56;;;;;;;;;;;0.80;99.90;;;;;;5030406;28;19999;-74
2021/12/20 00:42:16;;;;;;;;;;;0.80;99.90;;;;;;5033361;28;20035;-74
2021/12/20 00:44:47;;;;;;;;;;;0.80;99.90;;;;;;5033386;28;20019;-74
2021/12/20 00:47:14;;;;;;;;;;;0.80;99.90;;;;;;5016616;28;20011;-74
2021/12/20 00:49:41;;;;;;;;;;;0.90;99.90;;;;;;5033799;28;20400;-74
2021/12/20 00:52:08;;;;;;;;;;;0.90;99.90;;;;;;5016873;28;19968;-74
2021/12/20 00:54:39;;;;;;;;;;;0.80;99.90;;;;;;5032931;28;19921;-74
2021/12/20 00:57:11;;;;;;;;;;;0.80;99.90;;;;;;5019492;28;19920;-78
2021/12/20 00:59:39;;;;;;;;;;;0.80;99.90;;;;;;5035486;28;19952;-74
2021/12/20 01:02:11;;;;;;;;;;;0.80;99.90;;;;;;5035668;28;19921;-74
2021/12/20 01:04:42;;;;;;;;;;;0.80;99.90;;;;;;5036084;28;19966;-74
2021/12/20 01:07:09;;;;;;;;;;;0.90;99.90;;;;;;5036734;28;20316;-74
2021/12/20 01:09:36;;;;;;;;;;;0.90;99.90;;;;;;5052741;28;19931;-74
2021/12/20 01:12:16;;;;;;;;;;;0.80;99.90;;;;;;5020423;28;19947;-76
2021/12/20 01:14:57;;;;;;;;;;;0.80;99.90;;;;;;5036186;28;19927;-75
2021/12/20 01:17:30;;;;;;;;;;;0.90;99.90;;;;;;5052474;28;19920;-75
2021/12/20 01:19:56;;;;;;;;;;;0.90;99.90;;;;;;5052717;28;19986;-75
2021/12/20 01:22:26;;;;;;;;;;;0.90;99.90;;;;;;5035766;28;20296;-74
2021/12/20 01:24:52;;;;;;;;;;;0.90;99.90;;;;;;5035933;28;20019;-75
2021/12/20 01:27:20;;;;;;;;;;;0.90;99.90;;;;;;5053760;28;19920;-74
2021/12/20 01:29:52;;;;;;;;;;;1.00;99.90;;;;;;5037006;28;20019;-74
2021/12/20 01:32:23;;;;;;;;;;;0.90;99.90;;;;;;5035701;28;19971;-74
2021/12/20 01:34:55;;;;;;;;;;;0.90;99.90;;;;;;5036037;28;19963;-74
2021/12/20 01:37:22;;;;;;;;;;;1.00;99.90;;;;;;5035716;28;19960;-74
2021/12/20 01:39:58;;;;;;;;;;;1.00;99.90;;;;;;5035730;28;20361;-75
2021/12/20 01:42:28;;;;;;;;;;;1.00;99.90;;;;;;5051935;28;19927;-75
2021/12/20 01:44:56;;;;;;;;;;;1.00;99.90;;;;;;5035949;28;19955;-74
2021/12/20 01:47:26;;;;;;;;;;;1.00;99.90;;;;;;5051791;28;20024;-74
2021/12/20 01:50:00;;;;;;;;;;;1.00;99.90;;;;;;5053447;28;19979;-74
2021/12/20 01:52:40;;;;;;;;;;;1.00;99.90;;;;;;5051582;28;20384;-74
2021/12/20 01:55:15;;;;;;;;;;;1.00;99.90;;;;;;5036600;28;19921;-74
2021/12/20 01:57:41;;;;;;;;;;;0.90;99.90;;;;;;5035491;28;19921;-74
2021/12/20 02:00:11;;;;;;;;;;;1.00;99.90;;;;;;5052874;28;19925;-74
2021/12/20 02:02:47;;;;;;;;;;;1.00;99.90;;;;;;5051202;28;20392;-74
2021/12/20 02:05:24;;;;;;;;;;;1.00;99.90;;;;;;5034510;28;19963;-74
2021/12/20 02:08:13;;;;;;;;;;;1.00;99.90;;;;;;5051631;28;19920;-76
2021/12/20 02:10:45;;;;;;;;;;;0.90;99.90;;;;;;5034851;28;19959;-74
2021/12/20 02:13:13;;;;;;;;;;;1.00;99.90;;;;;;5034309;28;20377;-75
2021/12/20 02:15:44;;;;;;;;;;;0.90;99.90;;;;;;5052750;28;19921;-75
2021/12/20 02:18:16;;;;;;;;;;;1.00;99.90;;;;;;5035074;28;19924;-75
2021/12/20 02:20:48;;;;;;;;;;;1.00;99.90;;;;;;5035114;28;20037;-74
2021/12/20 02:23:14;;;;;;;;;;;0.90;99.90;;;;;;5049872;28;20007;-74
2021/12/20 02:25:46;;;;;;;;;;;0.90;99.90;;;;;;5034654;28;19931;-74
2021/12/20 02:28:19;;;;;;;;;;;0.90;99.90;;;;;;5018268;28;19934;-75
2021/12/20 02:38:47;;;;;;;;;;;1.00;99.90;;;;;;5034446;28;19948;-75
2021/12/20 02:41:15;;;;;;;;;;;1.00;99.90;;;;;;5034138;28;19967;-75
2021/12/20 02:43:43;;;;;;;;;;;1.00;99.90;;;;;;5050740;28;19920;-75
2021/12/20 02:49:07;;;;;;;;;;;1.00;99.90;;;;;;5034459;28;20442;-75
2021/12/20 02:51:39;;;;;;;;;;;1.00;99.90;;;;;;5052273;28;19920;-75
2021/12/20 02:54:12;;;;;;;;;;;1.00;99.90;;;;;;5033815;28;19920;-74
2021/12/20 02:56:44;;;;;;;;;;;0.90;99.90;;;;;;5034255;28;20293;-74
2021/12/20 02:59:12;;;;;;;;;;;0.90;99.90;;;;;;5033393;28;19983;-74
2021/12/20 03:01:41;;;;;;;;;;;0.90;99.90;;;;;;5034060;28;20019;-74
2021/12/20 03:04:08;;;;;;;;;;;0.90;99.90;;;;;;5051410;28;19920;-74
2021/12/20 03:06:38;;;;;;;;;;;0.90;99.90;;;;;;5017721;28;19921;-74
2021/12/20 03:09:13;;;;;;;;;;;0.90;99.90;;;;;;5051826;28;19928;-74
2021/12/20 03:11:46;;;;;;;;;;;1.00;99.90;;;;;;5035065;28;19927;-74
2021/12/20 03:14:34;;;;;;;;;;;1.00;99.90;;;;;;5034205;28;19924;-74
2021/12/20 03:17:06;;;;;;;;;;;1.00;99.90;;;;;;5018291;28;20357;-75
2021/12/20 03:19:39;;;;;;;;;;;1.00;99.90;;;;;;5050550;28;19948;-75
2021/12/20 03:22:07;;;;;;;;;;;1.00;99.90;;;;;;5033718;28;19963;-74
2021/12/20 03:24:36;;;;;;;;;;;1.00;99.90;;;;;;5033471;28;20007;-75
2021/12/20 03:27:09;;;;;;;;;;;1.00;99.90;;;;;;5018180;28;19967;-74
2021/12/20 03:29:36;;;;;;;;;;;1.10;99.90;;;;;;5033843;28;19942;-74
2021/12/20 03:32:02;;;;;;;;;;;1.10;99.90;;;;;;5050588;28;19952;-74
2021/12/20 03:34:34;;;;;;;;;;;1.10;99.90;;;;;;5051140;28;20295;-74
2021/12/20 03:37:01;;;;;;;;;;;1.10;99.90;;;;;;5050327;28;20023;-74
2021/12/20 03:39:32;;;;;;;;;;;1.00;99.90;;;;;;5051454;28;19921;-74
2021/12/20 03:42:04;;;;;;;;;;;1.10;99.90;;;;;;5017760;28;19927;-74
2021/12/20 03:44:33;;;;;;;;;;;1.10;99.90;;;;;;5033190;28;20487;-74
2021/12/20 03:47:00;;;;;;;;;;;1.10;99.90;;;;;;5050045;28;20288;-74
2021/12/20 03:49:31;;;;;;;;;;;1.10;99.90;;;;;;5050351;28;19920;-74
2021/12/20 03:52:07;;;;;;;;;;;1.10;99.90;;;;;;5034561;28;19943;-75
2021/12/20 03:54:34;;;;;;;;;;;1.10;99.90;;;;;;5049674;28;20339;-74
2021/12/20 03:57:06;;;;;;;;;;;1.10;99.90;;;;;;5017483;28;19921;-74
2021/12/20 03:59:38;;;;;;;;;;;1.10;99.90;;;;;;5033690;28;19920;-74
2021/12/20 04:02:10;;;;;;;;;;;1.10;99.90;;;;;;5033399;28;19921;-74
2021/12/20 04:04:36;;;;;;;;;;;1.10;99.90;;;;;;5033149;28;20031;-75
2021/12/20 04:07:03;;;;;;;;;;;1.10;99.90;;;;;;5050251;28;19920;-75
2021/12/20 04:09:30;;;;;;;;;;;1.10;99.90;;;;;;5033477;28;20379;-74
2021/12/20 04:11:56;;;;;;;;;;;1.10;99.90;;;;;;5036579;28;20342;-74
2021/12/20 04:14:29;;;;;;;;;;;1.10;99.90;;;;;;5036953;28;19920;-74
2021/12/20 04:17:01;;;;;;;;;;;1.10;99.90;;;;;;5055089;28;19927;-74
2021/12/20 04:19:27;;;;;;;;;;;1.10;99.90;;;;;;5053920;28;19921;-74
2021/12/20 04:21:54;;;;;;;;;;;1.10;99.90;;;;;;5037175;28;19921;-75
2021/12/20 04:24:21;;;;;;;;;;;1.10;99.90;;;;;;5036708;28;19920;-74
2021/12/20 04:26:47;;;;;;;;;;;1.10;99.90;;;;;;5055015;28;20015;-74
2021/12/20 04:29:14;;;;;;;;;;;1.10;99.90;;;;;;5037279;28;19921;-74
2021/12/20 04:31:46;;;;;;;;;;;1.00;99.90;;;;;;5037174;28;19921;-74
2021/12/20 04:34:12;;;;;;;;;;;1.00;99.90;;;;;;5030527;28;19934;-74
2021/12/20 04:36:39;;;;;;;;;;;1.10;99.90;;;;;;5036870;28;19948;-75
2021/12/20 04:39:15;;;;;;;;;;;1.00;99.90;;;;;;5032672;28;19921;-75
2021/12/20 04:41:47;;;;;;;;;;;1.00;99.90;;;;;;5057347;28;20368;-75
2021/12/20 04:44:14;;;;;;;;;;;1.00;99.90;;;;;;5056425;28;19920;-74
2021/12/20 04:46:45;;;;;;;;;;;1.00;99.90;;;;;;5051160;28;19927;-75
2021/12/20 04:49:17;;;;;;;;;;;1.00;99.90;;;;;;5036527;28;19924;-74
2021/12/20 04:51:49;;;;;;;;;;;1.00;99.90;;;;;;5036144;28;19943;-75
2021/12/20 04:54:16;;;;;;;;;;;1.00;99.90;;;;;;5016202;28;20016;-75
2021/12/20 04:56:42;;;;;;;;;;;1.00;99.90;;;;;;5049127;28;19963;-75
2021/12/20 04:59:09;;;;;;;;;;;1.00;99.90;;;;;;5039202;28;19944;-75
2021/12/20 05:01:40;;;;;;;;;;;1.10;99.90;;;;;;5053695;28;19921;-76
2021/12/20 05:04:12;;;;;;;;;;;1.20;99.90;;;;;;5069589;28;19926;-74
2021/12/20 05:06:45;;;;;;;;;;;1.20;99.90;;;;;;5055700;28;20385;-74
2021/12/20 05:09:12;;;;;;;;;;;1.20;99.90;;;;;;5055153;28;20468;-73
2021/12/20 05:11:47;;;;;;;;;;;1.10;99.90;;;;;;5072873;28;19924;-73
2021/12/20 05:14:13;;;;;;;;;;;1.10;99.90;;;;;;5071889;28;20020;-75
2021/12/20 05:16:46;;;;;;;;;;;1.10;99.90;;;;;;5057997;28;19977;-75
2021/12/20 05:19:14;;;;;;;;;;;1.10;99.90;;;;;;5056153;28;19920;-74
2021/12/20 05:21:46;;;;;;;;;;;1.10;99.90;;;;;;5038656;28;19927;-74
2021/12/20 05:24:13;;;;;;;;;;;1.10;99.90;;;;;;5054945;28;19924;-74
2021/12/20 05:26:40;;;;;;;;;;;1.10;99.90;;;;;;5055417;28;19991;-74
2021/12/20 05:29:11;;;;;;;;;;;1.10;99.90;;;;;;5039499;28;20014;-74
2021/12/20 05:31:43;;;;;;;;;;;1.10;99.90;;;;;;5056031;28;20015;-74
2021/12/20 05:34:10;;;;;;;;;;;1.10;99.90;;;;;;5054837;28;19942;-74
2021/12/20 05:36:36;;;;;;;;;;;1.00;99.90;;;;;;5073257;28;20458;-74
2021/12/20 05:39:03;;;;;;;;;;;1.00;99.90;;;;;;5073795;28;19920;-74
2021/12/20 05:41:30;;;;;;;;;;;1.00;99.90;;;;;;5073235;28;20021;-74
2021/12/20 05:43:57;;;;;;;;;;;1.00;99.90;;;;;;5038431;28;20023;-76
2021/12/20 05:46:29;;;;;;;;;;;1.00;99.90;;;;;;5056312;28;20019;-74
2021/12/20 05:48:55;;;;;;;;;;;1.00;99.90;;;;;;5073297;28;20019;-75
2021/12/20 05:51:27;;;;;;;;;;;1.00;99.90;;;;;;5054654;28;19927;-74
2021/12/20 05:53:59;;;;;;;;;;;1.00;99.90;;;;;;5053779;28;19927;-74
2021/12/20 05:56:30;;;;;;;;;;;1.00;99.90;;;;;;5038507;28;20023;-74
2021/12/20 05:59:02;;;;;;;;;;;1.00;99.90;;;;;;5039439;28;20307;-76
2021/12/20 06:01:34;;;;;;;;;;;1.10;99.90;;;;;;5056253;28;19920;-74
2021/12/20 06:04:00;;;;;;;;;;;1.10;99.90;;;;;;5038070;28;19926;-75
2021/12/20 06:06:28;;;;;;;;;;;1.10;99.90;;;;;;5055593;28;20348;-74
2021/12/20 06:09:02;;;;;;;;;;;1.10;99.90;;;;;;5073047;28;19927;-74
2021/12/20 06:11:29;;;;;;;;;;;1.00;99.90;;;;;;5054968;28;19978;-74
2021/12/20 06:13:55;;;;;;;;;;;1.10;99.90;;;;;;5071357;28;19956;-74
2021/12/20 06:16:22;;;;;;;;;;;1.00;99.90;;;;;;5055093;28;20378;-74
2021/12/20 06:18:51;;;;;;;;;;;1.00;99.90;;;;;;5071868;28;19924;-74
2021/12/20 06:21:23;;;;;;;;;;;1.10;99.90;;;;;;5054760;28;19927;-74
2021/12/20 06:23:55;;;;;;;;;;;1.00;99.90;;;;;;5054353;28;20054;-74
2021/12/20 06:26:29;;;;;;;;;;;1.10;99.90;;;;;;5038956;28;19920;-74
2021/12/20 06:28:56;;;;;;;;;;;1.10;99.90;;;;;;5072710;28;20003;-74
2021/12/20 06:31:23;;;;;;;;;;;1.10;99.90;;;;;;5072647;28;19951;-74
2021/12/20 06:33:50;;;;;;;;;;;1.10;99.90;;;;;;5071155;28;19928;-74
2021/12/20 06:36:21;;;;;;;;;;;1.10;99.90;;;;;;5055323;28;20656;-74
2021/12/20 06:38:54;;;;;;;;;;;1.10;99.90;;;;;;5054724;28;19920;-74
2021/12/20 06:41:21;;;;;;;;;;;1.10;99.90;;;;;;5054586;28;19959;-74
2021/12/20 06:43:49;;;;;;;;;;;1.00;99.90;;;;;;5037630;28;20437;-74
2021/12/20 06:46:17;;;;;;;;;;;1.00;99.90;;;;;;5054261;28;19967;-75
2021/12/20 06:48:44;;;;;;;;;;;1.00;99.90;;;;;;5054711;28;19921;-74
2021/12/20 06:51:16;;;;;;;;;;;1.10;99.90;;;;;;5054398;28;19920;-74
2021/12/20 06:53:44;;;;;;;;;;;1.10;99.90;;;;;;5053849;28;20399;-74
2021/12/20 06:56:12;;;;;;;;;;;1.00;99.90;;;;;;5054496;28;19920;-74
2021/12/20 06:58:45;;;;;;;;;;;1.00;99.90;;;;;;5055030;28;19920;-74
2021/12/20 07:01:12;;;;;;;;;;;1.00;99.90;;;;;;5072104;28;19920;-74
2021/12/20 07:03:41;;;;;;;;;;;1.00;99.90;;;;;;5054285;28;19928;-74
2021/12/20 07:06:12;;;;;;;;;;;1.00;99.90;;;;;;5071816;28;19963;-75
2021/12/20 07:08:44;;;;;;;;;;;1.00;99.90;;;;;;5054147;28;20014;-74
2021/12/20 07:11:12;;;;;;;;;;;1.00;99.90;;;;;;5053770;28;20388;-74
2021/12/20 07:13:41;;;;;;;;;;;1.00;99.90;;;;;;5053961;28;20342;-74
2021/12/20 07:16:13;;;;;;;;;;;1.00;99.90;;;;;;5054739;28;19921;-74
2021/12/20 07:18:45;;;;;;;;;;;1.00;99.90;;;;;;5054868;28;19920;-74
2021/12/20 07:21:12;;;;;;;;;;;1.00;99.90;;;;;;5054104;28;19920;-75
2021/12/20 07:23:44;;;;;;;;;;;1.00;99.90;;;;;;5037426;28;19920;-74
2021/12/20 07:26:15;;;;;;;;;;;1.00;99.90;;;;;;5053799;28;19924;-74
2021/12/20 07:28:47;;;;;;;;;;;1.00;99.90;;;;;;5054700;28;19926;-74
2021/12/20 07:31:14;;;;;;;;;;;1.00;99.90;;;;;;5053746;28;19966;-74
2021/12/20 07:33:42;;;;;;;;;;;1.00;99.90;;;;;;5069746;28;20001;-74
2021/12/20 07:36:09;;;;;;;;;;;1.00;99.90;;;;;;5037380;28;19989;-76
2021/12/20 07:38:36;;;;;;;;;;;1.00;99.90;;;;;;5053669;28;20709;-74
2021/12/20 07:41:04;;;;;;;;;;;1.00;99.90;;;;;;5036943;28;19920;-74
2021/12/20 07:43:30;;;;;;;;;;;1.10;99.90;;;;;;5036372;28;20047;-74
2021/12/20 07:45:57;;;;;;;;;;;1.10;99.90;;;;;;5053019;28;19920;-74
2021/12/20 07:48:29;;;;;;;;;;;1.10;99.90;;;;;;5071342;28;19928;-76
2021/12/20 07:51:01;;;;;;;;;;;1.10;99.90;;;;;;5071548;28;20030;-74
2021/12/20 07:53:33;;;;;;;;;;;1.10;99.90;;;;;;5071029;28;20380;-74
2021/12/20 07:56:00;;;;;;;;;;;1.20;99.90;;;;;;5053583;28;20003;-74
2021/12/20 07:58:32;;;;;;;;;;;1.10;99.90;;;;;;5037484;28;20273;-74
2021/12/20 08:01:04;;;;;;;;;;;1.10;99.90;;;;;;5054568;28;19920;-74
2021/12/20 08:03:31;;;;;;;;;;;1.10;99.90;;;;;;5036035;28;20023;-74
2021/12/20 08:06:03;;;;;;;;;;;1.20;99.90;;;;;;5053416;28;20291;-74
2021/12/20 08:08:30;;;;;;;;;;;1.20;99.90;;;;;;5052737;28;20031;-75
2021/12/20 08:10:57;;;;;;;;;;;1.20;99.90;;;;;;5053467;28;19924;-74
2021/12/20 08:13:23;;;;;;;;;;;1.20;99.90;;;;;;5052822;28;19927;-74
2021/12/20 08:15:55;;;;;;;;;;;1.20;99.90;;;;;;5053344;28;19942;-75
2021/12/20 08:18:22;;;;;;;;;;;1.30;99.90;;;;;;5053123;28;19951;-74
2021/12/20 08:20:49;;;;;;;;;;;1.30;99.90;;;;;;5053579;28;19931;-74
2021/12/20 08:23:15;;;;;;;;;;;1.30;99.90;;;;;;5035930;28;20018;-75
2021/12/20 08:25:43;;;;;;;;;;;1.30;99.90;;;;;;5071103;28;20015;-74
2021/12/20 08:28:14;;;;;;;;;;;1.30;99.90;;;;;;5037293;28;20384;-74
2021/12/20 08:30:41;;;;;;;;;;;1.40;99.90;;;;;;5053310;28;19927;-74
2021/12/20 08:33:08;;;;;;;;;;;1.40;99.90;;;;;;5052739;28;19960;-74
2021/12/20 08:35:40;;;;;;;;;;;1.40;99.90;;;;;;5054153;28;19931;-74
2021/12/20 08:38:12;;;;;;;;;;;1.40;99.90;;;;;;5037263;28;20023;-74
2021/12/20 08:40:38;;;;;;;;;;;1.50;99.90;;;;;;5036472;28;19920;-76
2021/12/20 08:43:05;;;;;;;;;;;1.50;99.90;;;;;;5069052;28;19927;-74
2021/12/20 08:45:32;;;;;;;;;;;1.60;99.90;;;;;;5070974;28;19921;-74
2021/12/20 08:47:59;;;;;;;;;;;1.60;99.90;;;;;;5070676;28;19966;-74
2021/12/20 08:50:25;;;;;;;;;;;1.60;99.90;;;;;;5053134;28;19975;-75
2021/12/20 08:52:57;;;;;;;;;;;1.70;99.90;;;;;;5052580;28;19962;-74
2021/12/20 08:55:29;;;;;;;;;;;1.80;99.90;;;;;;5052618;28;20007;-74
2021/12/20 08:58:00;;;;;;;;;;;2.10;99.90;;;;;;5055352;28;20465;-74
2021/12/20 09:00:34;;;;;;;;;;;2.20;99.90;;;;;;5056265;28;19942;-74
2021/12/20 09:03:01;;;;;;;;;;;2.20;99.90;;;;;;5055701;28;20023;-74
2021/12/20 09:05:33;;;;;;;;;;;2.10;99.90;;;;;;5055392;28;20287;-74
2021/12/20 09:08:06;;;;;;;;;;;2.10;99.90;;;;;;5073981;28;20023;-75
2021/12/20 09:10:33;;;;;;;;;;;2.00;99.90;;;;;;5055949;28;19920;-74
2021/12/20 09:13:00;;;;;;;;;;;1.90;99.90;;;;;;5055777;28;19924;-74
2021/12/20 09:15:27;;;;;;;;;;;1.90;99.90;;;;;;5072336;28;20344;-75
2021/12/20 09:17:54;;;;;;;;;;;1.90;99.90;;;;;;5055620;28;19927;-74
2021/12/20 09:20:22;;;;;;;;;;;1.90;99.90;;;;;;5055645;28;20300;-74
2021/12/20 09:22:53;;;;;;;;;;;1.90;99.90;;;;;;5038452;28;19960;-74
2021/12/20 09:25:26;;;;;;;;;;;1.90;99.90;;;;;;5055764;28;20027;-75
2021/12/20 09:27:59;;;;;;;;;;;1.90;99.90;;;;;;5039416;28;20001;-75
2021/12/20 09:30:27;;;;;;;;;;;1.90;99.90;;;;;;5055507;28;20343;-74
2021/12/20 09:32:54;;;;;;;;;;;1.80;99.90;;;;;;5055011;28;19935;-75
2021/12/20 09:35:26;;;;;;;;;;;1.90;99.90;;;;;;5055336;28;20034;-74
2021/12/20 09:37:53;;;;;;;;;;;1.90;99.90;;;;;;5055233;28;20450;-74
2021/12/20 09:40:31;;;;;;;;;;;1.90;99.90;;;;;;5055503;28;19974;-74
2021/12/20 09:43:06;;;;;;;;;;;2.00;99.90;;;;;;5054649;28;20046;-74
2021/12/20 09:45:40;;;;;;;;;;;2.00;99.90;;;;;;5072947;28;19966;-74
2021/12/20 09:48:12;;;;;;;;;;;2.00;99.90;;;;;;5055838;28;20019;-74
2021/12/20 09:50:43;;;;;;;;;;;2.10;99.90;;;;;;5055158;28;19950;-74
2021/12/20 09:53:15;;;;;;;;;;;2.10;99.90;;;;;;5051727;28;20384;-74
2021/12/20 09:55:47;;;;;;;;;;;2.20;99.90;;;;;;5035184;28;19921;-74
2021/12/20 09:58:15;;;;;;;;;;;2.20;99.90;;;;;;5034044;28;19921;-74
2021/12/20 10:00:47;;;;;;;;;;;2.30;99.90;;;;;;5033984;28;19921;-74
2021/12/20 10:03:14;;;;;;;;;;;2.30;99.90;;;;;;5052234;28;20369;-74
2021/12/20 10:05:40;;;;;;;;;;;2.30;99.90;;;;;;5049807;28;20351;-74
2021/12/20 10:08:16;;;;;;;;;;;2.40;99.90;;;;;;5049141;28;19963;-74
2021/12/20 10:10:49;;;;;;;;;;;2.40;99.90;;;;;;5034040;28;19926;-74
2021/12/20 10:13:20;;;;;;;;;;;2.40;99.90;;;;;;5035676;28;20567;-74
2021/12/20 10:15:47;;;;;;;;;;;2.50;99.90;;;;;;5034990;28;19920;-73
2021/12/20 10:18:19;;;;;;;;;;;2.50;99.90;;;;;;5034847;28;19920;-75
2021/12/20 10:20:50;;;;;;;;;;;2.50;99.90;;;;;;5035381;28;20496;-74
2021/12/20 10:23:19;;;;;;;;;;;2.60;99.90;;;;;;5034661;28;19927;-74
2021/12/20 10:25:55;;;;;;;;;;;2.60;99.90;;;;;;5032512;28;20019;-74
2021/12/20 10:28:23;;;;;;;;;;;2.60;99.90;;;;;;5034086;28;20011;-74
2021/12/20 10:31:00;;;;;;;;;;;2.60;99.90;;;;;;5034563;28;19927;-74
2021/12/20 10:33:32;;;;;;;;;;;2.70;99.90;;;;;;5032985;28;19927;-74
2021/12/20 10:36:10;;;;;;;;;;;2.70;99.90;;;;;;5034573;28;20495;-74
2021/12/20 10:38:38;;;;;;;;;;;2.70;99.90;;;;;;5034656;28;20007;-74
2021/12/20 10:41:12;;;;;;;;;;;2.70;99.90;;;;;;5033587;28;19931;-74
2021/12/20 10:43:50;;;;;;;;;;;2.70;99.90;;;;;;5051819;28;20011;-74
2021/12/20 10:46:22;;;;;;;;;;;2.70;99.90;;;;;;5034718;28;20300;-74
2021/12/20 10:48:59;;;;;;;;;;;2.70;99.90;;;;;;5035548;28;19927;-75
2021/12/20 10:51:36;;;;;;;;;;;2.70;99.90;;;;;;5018914;28;19927;-74
2021/12/20 10:54:13;;;;;;;;;;;2.70;99.90;;;;;;5035731;28;19927;-75
2021/12/20 10:56:53;;;;;;;;;;;2.70;99.90;;;;;;5018210;28;19920;-74
2021/12/20 10:59:26;;;;;;;;;;;2.80;99.90;;;;;;5018283;28;20015;-74
2021/12/20 11:04:23;;;;;;;;;;;2.90;99.90;;;;;;5033439;28;20019;-74
2021/12/20 11:09:30;;;;;;;;;;;3.00;99.90;;;;;;5052057;28;19921;-74
2021/12/20 11:12:03;;;;;;;;;;;3.00;99.90;;;;;;5051925;28;19925;-74
2021/12/20 11:14:32;;;;;;;;;;;3.10;99.90;;;;;;5016902;28;19931;-74
2021/12/20 11:17:04;;;;;;;;;;;3.10;99.90;;;;;;5032730;28;20011;-75
2021/12/20 11:19:37;;;;;;;;;;;3.00;99.90;;;;;;5033895;28;19927;-74
2021/12/20 11:22:04;;;;;;;;;;;3.00;99.90;;;;;;5034008;28;20456;-75
2021/12/20 11:24:36;;;;;;;;;;;3.00;99.90;;;;;;5033654;28;20020;-74
2021/12/20 11:27:10;;;;;;;;;;;3.00;99.90;;;;;;5035273;28;20311;-74
2021/12/20 11:29:38;;;;;;;;;;;3.00;99.90;;;;;;5017840;28;19921;-74
2021/12/20 11:32:10;;;;;;;;;;;3.00;99.90;;;;;;5034714;28;19971;-75
2021/12/20 11:34:38;;;;;;;;;;;3.10;99.90;;;;;;5041622;28;20011;-74
2021/12/20 11:37:15;;;;;;;;;;;3.10;99.90;;;;;;5014045;28;19987;-74
2021/12/20 11:39:41;;;;;;;;;;;3.20;99.90;;;;;;5014204;28;19921;-74
2021/12/20 11:42:09;;;;;;;;;;;3.30;99.90;;;;;;5013524;28;19956;-74
2021/12/20 11:44:42;;;;;;;;;;;3.30;99.90;;;;;;5029482;28;19965;-76
2021/12/20 11:47:29;;;;;;;;;;;3.40;99.90;;;;;;5013551;28;19920;-74
2021/12/20 11:50:04;;;;;;;;;;;3.50;99.90;;;;;;5014599;28;19931;-74
2021/12/20 11:52:43;;;;;;;;;;;3.50;99.90;;;;;;5012731;28;19956;-76
2021/12/20 11:55:18;;;;;;;;;;;3.60;99.90;;;;;;5033090;28;19921;-75
2021/12/20 11:57:47;;;;;;;;;;;3.60;99.90;;;;;;5033022;28;19960;-76
2021/12/20 12:00:20;;;;;;;;;;;3.70;99.90;;;;;;5033195;28;19927;-74
2021/12/20 12:02:54;;;;;;;;;;;3.70;99.90;;;;;;5050435;28;20023;-75
2021/12/20 12:05:32;;;;;;;;;;;3.80;99.90;;;;;;5031276;28;19924;-74
2021/12/20 12:08:17;;;;;;;;;;;3.80;99.90;;;;;;5032932;28;19921;-74
2021/12/20 12:10:50;;;;;;;;;;;3.90;99.90;;;;;;5050828;28;19920;-74
2021/12/20 12:13:18;;;;;;;;;;;4.10;99.90;;;;;;5032651;28;19920;-74
2021/12/20 12:15:53;;;;;;;;;;;4.20;99.90;;;;;;5034010;28;19921;-74
2021/12/20 12:18:40;;;;;;;;;;;4.30;99.90;;;;;;5016675;28;19921;-74
2021/12/20 12:21:07;;;;;;;;;;;4.30;99.90;;;;;;5033276;28;19987;-74
2021/12/20 12:23:42;;;;;;;;;;;4.30;99.90;;;;;;5033364;28;19921;-75
2021/12/20 12:26:27;;;;;;;;;;;4.20;99.90;;;;;;5050804;28;19921;-74
2021/12/20 12:28:55;;;;;;;;;;;4.20;99.90;;;;;;5050981;28;19948;-74
2021/12/20 12:31:23;;;;;;;;;;;4.10;99.90;;;;;;5050825;28;20011;-74
2021/12/20 12:34:09;;;;;;;;;;;4.00;99.90;;;;;;5035567;28;19920;-75
2021/12/20 12:36:42;;;;;;;;;;;3.90;99.90;;;;;;5037796;28;20011;-74
2021/12/20 12:39:28;;;;;;;;;;;3.70;99.90;;;;;;5037914;28;20023;-74
2021/12/20 12:41:59;;;;;;;;;;;3.70;99.90;;;;;;5037182;28;20346;-74
2021/12/20 12:44:30;;;;;;;;;;;3.70;99.90;;;;;;5036386;28;20086;-74
2021/12/20 12:47:03;;;;;;;;;;;3.60;99.90;;;;;;5051970;28;20015;-75
2021/12/20 12:49:31;;;;;;;;;;;3.60;99.90;;;;;;5054420;28;20341;-74
2021/12/20 12:52:29;;;;;;;;;;;3.50;99.90;;;;;;5054059;28;20003;-74
2021/12/20 12:55:07;;;;;;;;;;;3.30;99.90;;;;;;5036265;28;20019;-74
2021/12/20 12:57:36;;;;;;;;;;;3.20;99.90;;;;;;5036069;28;20377;-74
2021/12/20 13:00:09;;;;;;;;;;;3.20;99.90;;;;;;5054094;28;20304;-74
2021/12/20 13:02:40;;;;;;;;;;;3.30;99.90;;;;;;5036032;28;20007;-75
2021/12/20 13:05:15;;;;;;;;;;;3.40;99.90;;;;;;5019715;28;19921;-74
2021/12/20 13:07:48;;;;;;;;;;;3.60;99.90;;;;;;5020276;28;19955;-75
2021/12/20 13:10:29;;;;;;;;;;;3.80;99.90;;;;;;5037186;28;19927;-74
2021/12/20 13:13:17;;;;;;;;;;;4.00;99.90;;;;;;5036069;28;19924;-74
2021/12/20 13:15:51;;;;;;;;;;;4.20;99.90;;;;;;5036390;28;20319;-75
2021/12/20 13:18:28;;;;;;;;;;;4.40;99.90;;;;;;5053853;28;20027;-74
2021/12/20 13:21:04;;;;;;;;;;;4.60;99.90;;;;;;5053917;28;19920;-74
2021/12/20 13:23:39;;;;;;;;;;;4.70;99.90;;;;;;5035724;28;20394;-75
2021/12/20 13:26:17;;;;;;;;;;;4.80;99.90;;;;;;5017921;28;19958;-75
2021/12/20 13:28:50;;;;;;;;;;;4.90;99.90;;;;;;5036555;28;20003;-75
2021/12/20 13:31:23;;;;;;;;;;;4.90;99.90;;;;;;5052884;28;19925;-74
2021/12/20 13:33:51;;;;;;;;;;;4.80;99.90;;;;;;5035091;28;19920;-75
2021/12/20 13:36:29;;;;;;;;;;;4.70;99.90;;;;;;5035254;28;20014;-74
2021/12/20 13:39:03;;;;;;;;;;;4.60;99.90;;;;;;5035068;28;19924;-74
2021/12/20 13:41:36;;;;;;;;;;;4.40;99.90;;;;;;5051492;28;20280;-73
2021/12/20 13:44:08;;;;;;;;;;;4.20;99.90;;;;;;5050689;28;19952;-73
2021/12/20 13:46:47;;;;;;;;;;;4.10;99.90;;;;;;5024996;28;20019;-74
2021/12/20 13:49:24;;;;;;;;;;;4.10;99.90;;;;;;5015346;28;19921;-74
2021/12/20 13:51:52;;;;;;;;;;;4.00;99.90;;;;;;5033184;28;19921;-74
2021/12/20 13:54:22;;;;;;;;;;;3.90;99.90;;;;;;5014483;28;20481;-75
2021/12/20 13:56:53;;;;;;;;;;;3.80;99.90;;;;;;5032873;28;19944;-74
2021/12/20 13:59:24;;;;;;;;;;;3.70;99.90;;;;;;5014958;28;19921;-74
2021/12/20 14:01:56;;;;;;;;;;;3.60;99.90;;;;;;5015008;28;19928;-75
2021/12/20 14:04:35;;;;;;;;;;;3.50;99.90;;;;;;5014579;28;19964;-74
2021/12/20 14:07:26;;;;;;;;;;;3.50;99.90;;;;;;5030672;28;19927;-74
2021/12/20 14:10:07;;;;;;;;;;;3.50;99.90;;;;;;5015714;28;19927;-74
2021/12/20 14:12:42;;;;;;;;;;;3.40;99.90;;;;;;4998857;28;19927;-74
2021/12/20 14:15:15;;;;;;;;;;;3.40;99.90;;;;;;5015457;28;19964;-74
2021/12/20 14:18:12;;;;;;;;;;;3.30;99.90;;;;;;5032266;28;19921;-75
2021/12/20 14:20:43;;;;;;;;;;;3.30;99.90;;;;;;5021037;28;19967;-74
2021/12/20 14:23:53;;;;;;;;;;;3.20;99.90;;;;;;5032292;28;19935;-75
2021/12/20 14:26:26;;;;;;;;;;;3.10;99.90;;;;;;4939044;28;20390;-74
2021/12/20 14:29:03;;;;;;;;;;;2.80;99.90;;;;;;4955073;28;19929;-74
2021/12/20 14:31:38;;;;;;;;;;;2.60;99.90;;;;;;5020569;28;19942;-74
2021/12/20 14:34:10;;;;;;;;;;;2.50;99.90;;;;;;5033765;28;19925;-74
2021/12/20 14:36:38;;;;;;;;;;;2.40;99.90;;;;;;5051943;28;20015;-74
2021/12/20 14:39:15;;;;;;;;;;;2.40;99.90;;;;;;5034207;28;19921;-74
2021/12/20 14:41:52;;;;;;;;;;;2.30;99.90;;;;;;5018865;28;19927;-74
2021/12/20 14:44:40;;;;;;;;;;;2.20;99.90;;;;;;5017768;28;19921;-74
2021/12/20 14:47:23;;;;;;;;;;;2.10;99.90;;;;;;5034498;28;19927;-74
2021/12/20 14:52:25;;;;;;;;;;;2.00;99.90;;;;;;5052925;28;19926;-74
2021/12/20 14:55:17;;;;;;;;;;;2.00;99.90;;;;;;5027787;28;19921;-74
2021/12/20 14:57:49;;;;;;;;;;;1.90;99.90;;;;;;5038395;28;19964;-74
2021/12/20 15:00:19;;;;;;;;;;;1.90;99.90;;;;;;5043893;28;20380;-74
2021/12/20 15:02:45;;;;;;;;;;;1.80;99.90;;;;;;5024336;28;19927;-74
2021/12/20 15:05:18;;;;;;;;;;;1.80;99.90;;;;;;5052209;28;19924;-74
2021/12/20 15:07:50;;;;;;;;;;;1.70;99.90;;;;;;5028607;28;20448;-74
2021/12/20 15:10:19;;;;;;;;;;;1.60;99.90;;;;;;5047482;28;19920;-74
2021/12/20 15:12:55;;;;;;;;;;;1.50;99.90;;;;;;5032761;28;19990;-74
2021/12/20 15:15:22;;;;;;;;;;;1.50;99.90;;;;;;5033149;28;20467;-75
2021/12/20 15:17:49;;;;;;;;;;;1.50;99.90;;;;;;5032853;28;19920;-74